Time;durP1;ratioP1;P1;durP2;ratioP2;P2;SDS_P1;SDS_P2;PMS_P1;PMS_P2;Temp;Humidity;BMP_temperature;BMP_pressure;BME280_temperature;BME280_humidity;BME280_pressure;Samples;Min_cycle;Max_cycle;Signal;HPM_P1;HPM_P2
2023/07/11 00:00:00;;;;;;;11.75;8.02;;;;;;;;;;10096386;28;20067;-91
2023/07/11 00:04:56;;;;;;;7.18;6.45;;;;;;;;;;10105599;28;20052;-91
2023/07/11 00:09:51;;;;;;;9.32;6.80;;;;;;;;;;10099506;28;20571;-92
2023/07/11 00:14:45;;;;;;;25.17;7.80;;;;;;;;;;10070830;28;20076;-91
2023/07/11 00:19:57;;;;;;;8.43;7.35;;;;;;;;;;10081268;28;20407;-92
2023/07/11 00:24:51;;;;;;;10.63;6.80;;;;;;;;;;10106569;28;20056;-92
2023/07/11 00:29:45;;;;;;;11.00;6.95;;;;;;;;;;10106434;28;20400;-92
2023/07/11 00:34:39;;;;;;;9.73;6.93;;;;;;;;;;10074670;28;20080;-92
2023/07/11 00:39:35;;;;;;;23.42;8.52;;;;;;;;;;10069457;28;20060;-92
2023/07/11 00:44:46;;;;;;;15.68;7.38;;;;;;;;;;10106083;28;20057;-91
2023/07/11 00:49:41;;;;;;;10.07;6.88;;;;;;;;;;10087922;28;20446;-92
2023/07/11 00:54:37;;;;;;;10.50;7.15;;;;;;;;;;10087572;28;20052;-92
2023/07/11 00:59:31;;;;;;;9.10;6.63;;;;;;;;;;10104244;28;20105;-91
2023/07/11 01:04:24;;;;;;;11.40;6.60;;;;;;;;;;10081670;28;20077;-92
2023/07/11 01:09:19;;;;;;;7.55;6.55;;;;;;;;;;10103940;28;20133;-91
2023/07/11 01:14:14;;;;;;;9.18;7.00;;;;;;;;;;10113890;28;20083;-90
2023/07/11 01:19:09;;;;;;;10.07;6.82;;;;;;;;;;10095445;28;20057;-92
2023/07/11 01:24:05;;;;;;;7.68;6.32;;;;;;;;;;10054763;28;20049;-91
2023/07/11 01:28:59;;;;;;;7.85;6.20;;;;;;;;;;10105098;28;20053;-92
2023/07/11 01:33:55;;;;;;;9.85;7.43;;;;;;;;;;10111722;28;20045;-92
2023/07/11 01:38:49;;;;;;;12.88;6.90;;;;;;;;;;10112430;28;20056;-92
2023/07/11 01:43:43;;;;;;;8.77;7.10;;;;;;;;;;10111176;28;20060;-92
2023/07/11 01:48:38;;;;;;;8.50;7.30;;;;;;;;;;10109177;28;20049;-92
2023/07/11 01:53:32;;;;;;;7.53;6.63;;;;;;;;;;10092248;28;20057;-92
2023/07/11 01:58:25;;;;;;;7.60;6.88;;;;;;;;;;10108295;28;20049;-92
2023/07/11 02:03:18;;;;;;;6.90;6.28;;;;;;;;;;10091119;28;20055;-92
2023/07/11 02:08:12;;;;;;;8.18;6.45;;;;;;;;;;10111134;28;20136;-92
2023/07/11 02:13:07;;;;;;;7.88;6.10;;;;;;;;;;10093726;28;20449;-93
2023/07/11 02:18:04;;;;;;;7.82;6.93;;;;;;;;;;10093580;28;20053;-91
2023/07/11 02:22:59;;;;;;;7.13;6.43;;;;;;;;;;10110265;28;20103;-93
2023/07/11 02:27:53;;;;;;;7.10;6.32;;;;;;;;;;10110414;28;20053;-93
2023/07/11 02:32:48;;;;;;;8.05;6.15;;;;;;;;;;10111551;28;20049;-93
2023/07/11 02:37:42;;;;;;;7.60;6.32;;;;;;;;;;10110434;28;20095;-93
2023/07/11 02:42:36;;;;;;;11.20;7.47;;;;;;;;;;10109776;28;20102;-93
2023/07/11 02:47:30;;;;;;;8.57;6.60;;;;;;;;;;10109822;28;20463;-92
2023/07/11 02:52:27;;;;;;;10.13;7.50;;;;;;;;;;10109812;28;20465;-93
2023/07/11 02:57:21;;;;;;;8.82;6.10;;;;;;;;;;10109682;28;20581;-93
2023/07/11 03:02:15;;;;;;;7.22;5.90;;;;;;;;;;10109146;28;20073;-93
2023/07/11 03:07:10;;;;;;;8.15;6.10;;;;;;;;;;10109407;28;20061;-93
2023/07/11 03:12:06;;;;;;;10.50;5.75;;;;;;;;;;10109454;28;20061;-94
2023/07/11 03:17:01;;;;;;;9.35;6.60;;;;;;;;;;10102878;28;20052;-94
2023/07/11 03:21:55;;;;;;;7.97;5.80;;;;;;;;;;10108769;28;20555;-92
2023/07/11 03:26:49;;;;;;;7.68;6.88;;;;;;;;;;10108070;28;20056;-94
2023/07/11 03:31:43;;;;;;;9.50;6.93;;;;;;;;;;10107860;28;20072;-94
2023/07/11 03:36:38;;;;;;;8.50;6.60;;;;;;;;;;10108094;28;20076;-93
2023/07/11 03:41:33;;;;;;;10.75;7.13;;;;;;;;;;10108553;28;20118;-94
2023/07/11 03:46:27;;;;;;;9.95;7.03;;;;;;;;;;10107838;28;20516;-93
2023/07/11 03:51:21;;;;;;;7.97;5.30;;;;;;;;;;10107532;28;20063;-92
2023/07/11 03:56:15;;;;;;;6.57;5.85;;;;;;;;;;10107395;28;20083;-92
2023/07/11 04:01:09;;;;;;;7.57;6.07;;;;;;;;;;10107802;28;20052;-93
2023/07/11 04:06:04;;;;;;;9.73;6.10;;;;;;;;;;10107749;28;20143;-93
2023/07/11 04:11:03;;;;;;;5.97;5.30;;;;;;;;;;10107809;28;20128;-94
2023/07/11 04:15:57;;;;;;;9.30;6.45;;;;;;;;;;10098736;28;20115;-93
2023/07/11 04:20:52;;;;;;;7.32;5.88;;;;;;;;;;10106310;28;20079;-94
2023/07/11 04:25:49;;;;;;;;;;;;;;;;;;10107183;28;20537;-93
2023/07/11 04:30:44;;;;;;;7.10;5.88;;;;;;;;;;10066674;28;19928;-94
2023/07/11 04:35:39;;;;;;;7.15;6.40;;;;;;;;;;10097384;28;20049;-94
2023/07/11 04:40:33;;;;;;;6.45;5.85;;;;;;;;;;10107195;28;20061;-94
2023/07/11 04:45:28;;;;;;;7.03;5.43;;;;;;;;;;10109830;28;20471;-94
2023/07/11 04:50:21;;;;;;;7.80;5.85;;;;;;;;;;10114226;28;20044;-95
2023/07/11 04:55:16;;;;;;;6.20;5.60;;;;;;;;;;10114996;28;20397;-93
2023/07/11 05:00:13;;;;;;;6.45;5.50;;;;;;;;;;10114028;28;20053;-94
2023/07/11 05:05:10;;;;;;;6.22;5.50;;;;;;;;;;10113534;28;20427;-93
2023/07/11 05:10:06;;;;;;;6.00;5.50;;;;;;;;;;10088062;28;20056;-93
2023/07/11 05:15:01;;;;;;;6.15;5.55;;;;;;;;;;10111709;28;20422;-94
2023/07/11 05:19:54;;;;;;;8.82;6.78;;;;;;;;;;10131736;23;20056;-67
2023/07/11 05:24:46;;;;;;;7.85;5.55;;;;;;;;;;10189182;22;20127;-68
2023/07/11 05:29:38;;;;;;;6.55;5.95;;;;;;;;;;10133734;28;20045;-67
2023/07/11 05:34:30;;;;;;;6.82;6.18;;;;;;;;;;10111980;28;20048;-65
2023/07/11 05:39:24;;;;;;;6.88;6.28;;;;;;;;;;10140462;28;20059;-63
2023/07/11 05:44:16;;;;;;;6.57;5.50;;;;;;;;;;10148961;28;20056;-64
2023/07/11 05:49:08;;;;;;;9.90;6.13;;;;;;;;;;10148136;28;20044;-62
2023/07/11 05:54:01;;;;;;;12.10;5.70;;;;;;;;;;10149243;28;20092;-64
2023/07/11 05:58:53;;;;;;;7.55;5.95;;;;;;;;;;10147066;28;20048;-64
2023/07/11 06:03:47;;;;;;;8.35;6.07;;;;;;;;;;10147995;28;20095;-63
2023/07/11 06:08:41;;;;;;;14.25;6.70;;;;;;;;;;10149671;28;20148;-62
2023/07/11 06:13:36;;;;;;;15.23;7.18;;;;;;;;;;10148784;28;20383;-63
2023/07/11 06:18:30;;;;;;;11.15;6.88;;;;;;;;;;10176488;28;20110;-61
2023/07/11 06:23:22;;;;;;;14.82;6.85;;;;;;;;;;10149471;28;20044;-64
2023/07/11 06:28:14;;;;;;;12.40;6.07;;;;;;;;;;10146447;28;20052;-64
2023/07/11 06:33:12;;;;;;;12.15;7.22;;;;;;;;;;10141476;28;20052;-57
2023/07/11 06:38:04;;;;;;;13.80;8.63;;;;;;;;;;10144740;28;20045;-59
2023/07/11 06:42:56;;;;;;;13.88;9.60;;;;;;;;;;10164672;28;20044;-62
2023/07/11 06:47:48;;;;;;;14.40;9.80;;;;;;;;;;10120323;28;20087;-59
2023/07/11 06:52:40;;;;;;;18.25;9.48;;;;;;;;;;10141270;28;20056;-61
2023/07/11 06:57:32;;;;;;;14.90;9.70;;;;;;;;;;10146801;28;20365;-61
2023/07/11 07:02:23;;;;;;;20.23;11.13;;;;;;;;;;10146685;28;20048;-61
2023/07/11 07:07:16;;;;;;;17.08;10.52;;;;;;;;;;10145828;28;20473;-61
2023/07/11 07:12:08;;;;;;;15.05;10.93;;;;;;;;;;10143745;28;20045;-59
2023/07/11 07:17:00;;;;;;;14.68;11.98;;;;;;;;;;10144220;28;20528;-62
2023/07/11 07:21:51;;;;;;;13.73;10.07;;;;;;;;;;10145635;28;20080;-62
2023/07/11 07:26:43;;;;;;;14.77;11.60;;;;;;;;;;10145144;28;20664;-61
2023/07/11 07:31:35;;;;;;;20.77;11.45;;;;;;;;;;10145200;28;20493;-61
2023/07/11 07:36:27;;;;;;;30.13;13.32;;;;;;;;;;10130524;28;20048;-61
2023/07/11 07:41:20;;;;;;;25.10;10.20;;;;;;;;;;10135170;28;20098;-62
2023/07/11 07:46:14;;;;;;;17.92;10.27;;;;;;;;;;10149191;28;20101;-63
2023/07/11 07:51:09;;;;;;;24.25;9.65;;;;;;;;;;10162511;28;20052;-62
2023/07/11 07:56:12;;;;;;;17.25;9.80;;;;;;;;;;10139633;28;20420;-69
2023/07/11 08:01:05;;;;;;;16.77;9.38;;;;;;;;;;10137690;28;20190;-69
2023/07/11 08:05:58;;;;;;;26.45;10.30;;;;;;;;;;10141440;28;20125;-70
2023/07/11 08:11:07;;;;;;;21.75;10.75;;;;;;;;;;10107584;28;20045;-66
2023/07/11 08:16:01;;;;;;;18.35;9.10;;;;;;;;;;10138969;28;20066;-67
2023/07/11 08:21:09;;;;;;;19.13;9.63;;;;;;;;;;10146403;28;20052;-67
2023/07/11 08:26:01;;;;;;;22.92;10.43;;;;;;;;;;10146820;28;20099;-69
2023/07/11 08:30:53;;;;;;;18.25;10.35;;;;;;;;;;10146282;28;20101;-66
2023/07/11 08:35:45;;;;;;;18.10;8.50;;;;;;;;;;10147552;28;20525;-67
2023/07/11 08:40:45;;;;;;;20.60;9.02;;;;;;;;;;10156150;28;20431;-67
2023/07/11 08:45:49;;;;;;;19.08;9.35;;;;;;;;;;10159220;28;20094;-69
2023/07/11 08:51:00;;;;;;;;;;;;;;;;;;10151383;28;20106;-65
2023/07/11 08:55:56;;;;;;;16.77;8.18;;;;;;;;;;10148243;28;19953;-71
2023/07/11 09:00:49;;;;;;;16.58;8.13;;;;;;;;;;10131682;28;20568;-71
2023/07/11 09:06:08;;;;;;;13.52;8.48;;;;;;;;;;10149603;28;20048;-69
2023/07/11 09:11:06;;;;;;;;;;;;;;;;;;10145182;28;20087;-68
2023/07/11 09:16:20;;;;;;;12.35;7.97;;;;;;;;;;10124826;28;19921;-68
2023/07/11 09:21:23;;;;;;;16.25;7.68;;;;;;;;;;10127776;28;20098;-66
2023/07/11 09:26:27;;;;;;;14.55;8.75;;;;;;;;;;10148413;28;20102;-65
2023/07/11 09:31:19;;;;;;;17.35;7.47;;;;;;;;;;10147332;28;20159;-66
2023/07/11 09:36:21;;;;;;;12.23;7.90;;;;;;;;;;10128582;28;20094;-74
2023/07/11 09:41:23;;;;;;;13.85;7.75;;;;;;;;;;10140981;28;20056;-66
2023/07/11 09:46:28;;;;;;;14.10;8.40;;;;;;;;;;10124282;28;20053;-67
2023/07/11 09:51:30;;;;;;;15.07;8.45;;;;;;;;;;10146793;28;20052;-67
2023/07/11 09:56:24;;;;;;;18.90;8.57;;;;;;;;;;10146528;28;20049;-66
2023/07/11 10:01:28;;;;;;;10.40;7.40;;;;;;;;;;10146533;28;20045;-68
2023/07/11 10:06:35;;;;;;;12.10;7.32;;;;;;;;;;10146313;28;20060;-68
2023/07/11 10:11:30;;;;;;;9.63;7.38;;;;;;;;;;10146371;28;20152;-67
2023/07/11 10:16:22;;;;;;;14.55;7.53;;;;;;;;;;10146067;28;20052;-67
2023/07/11 10:21:17;;;;;;;11.65;7.05;;;;;;;;;;10145393;28;20056;-62
2023/07/11 10:26:20;;;;;;;14.13;8.88;;;;;;;;;;10142043;28;20067;-67
2023/07/11 10:31:16;;;;;;;10.73;7.00;;;;;;;;;;10167972;28;20534;-64
2023/07/11 10:36:19;;;;;;;10.30;6.88;;;;;;;;;;10152044;28;20055;-63
2023/07/11 10:41:18;;;;;;;11.70;6.55;;;;;;;;;;10170878;28;20452;-63
2023/07/11 10:46:31;;;;;;;16.55;7.97;;;;;;;;;;10148388;28;20051;-63
2023/07/11 10:51:39;;;;;;;12.82;8.60;;;;;;;;;;10181252;28;20044;-68
2023/07/11 10:56:39;;;;;;;11.52;7.45;;;;;;;;;;10159906;28;20355;-66
2023/07/11 11:01:49;;;;;;;14.80;8.52;;;;;;;;;;10164462;28;20178;-60
2023/07/11 11:06:53;;;;;;;9.30;7.38;;;;;;;;;;10140027;28;20060;-60
2023/07/11 11:12:23;;;;;;;15.20;8.80;;;;;;;;;;9980310;28;20454;-64
2023/07/11 11:17:23;;;;;;;16.83;8.45;;;;;;;;;;9902092;28;20094;-71
2023/07/11 11:22:36;;;;;;;12.05;7.82;;;;;;;;;;9948083;28;20055;-66
2023/07/11 11:28:04;;;;;;;10.98;7.13;;;;;;;;;;9905976;28;20549;-64
2023/07/11 11:33:24;;;;;;;13.03;7.50;;;;;;;;;;9954431;28;20060;-65
2023/07/11 11:38:40;;;;;;;11.18;7.40;;;;;;;;;;9980966;28;20068;-66
2023/07/11 11:43:32;;;;;;;12.38;8.00;;;;;;;;;;9978119;28;20081;-64
2023/07/11 11:48:44;;;;;;;12.90;7.75;;;;;;;;;;9992397;28;20484;-66
2023/07/11 11:53:46;;;;;;;20.75;7.38;;;;;;;;;;9987468;28;20034;-64
2023/07/11 11:58:59;;;;;;;13.32;7.38;;;;;;;;;;9988145;28;20153;-66
2023/07/11 12:03:51;;;;;;;14.32;7.97;;;;;;;;;;9993555;28;20168;-67
2023/07/11 12:08:43;;;;;;;13.27;7.38;;;;;;;;;;9993092;28;20141;-65
2023/07/11 12:13:38;;;;;;;13.95;7.57;;;;;;;;;;9993123;28;20038;-65
2023/07/11 12:18:39;;;;;;;10.60;6.60;;;;;;;;;;9990687;28;20570;-65
2023/07/11 12:23:32;;;;;;;9.55;7.07;;;;;;;;;;9966474;28;20121;-65
2023/07/11 12:28:46;;;;;;;11.95;8.00;;;;;;;;;;9968007;28;20489;-66
2023/07/11 12:33:37;;;;;;;10.55;7.80;;;;;;;;;;9966389;28;20435;-66
2023/07/11 12:38:46;;;;;;;11.57;6.90;;;;;;;;;;9970166;28;20550;-66
2023/07/11 12:43:40;;;;;;;11.35;6.93;;;;;;;;;;9968119;28;20054;-66
2023/07/11 12:48:38;;;;;;;10.88;7.05;;;;;;;;;;9969131;28;20074;-65
2023/07/11 12:53:34;;;;;;;8.40;7.50;;;;;;;;;;9974872;28;20074;-66
2023/07/11 12:58:31;;;;;;;10.52;7.03;;;;;;;;;;9972310;28;20074;-66
2023/07/11 13:03:32;;;;;;;20.67;7.93;;;;;;;;;;9967255;28;20047;-65
2023/07/11 13:08:29;;;;;;;12.23;6.97;;;;;;;;;;9966625;28;20128;-65
2023/07/11 13:13:21;;;;;;;7.43;6.55;;;;;;;;;;9964208;28;20074;-65
2023/07/11 13:18:30;;;;;;;7.20;6.05;;;;;;;;;;9965781;28;20074;-61
2023/07/11 13:23:22;;;;;;;10.65;7.15;;;;;;;;;;9968578;28;20097;-61
2023/07/11 13:28:20;;;;;;;7.13;5.82;;;;;;;;;;9966836;28;20049;-61
2023/07/11 13:33:16;;;;;;;9.68;7.45;;;;;;;;;;9964979;28;20096;-61
2023/07/11 13:38:13;;;;;;;7.47;6.30;;;;;;;;;;9968325;28;20078;-59
2023/07/11 13:43:31;;;;;;;9.15;6.32;;;;;;;;;;9967974;28;20400;-66
2023/07/11 13:48:26;;;;;;;8.32;6.35;;;;;;;;;;9963813;28;20442;-65
2023/07/11 13:53:19;;;;;;;10.20;6.53;;;;;;;;;;9968474;28;20046;-65
2023/07/11 13:58:11;;;;;;;11.63;6.88;;;;;;;;;;9963343;28;20050;-65
2023/07/11 14:03:08;;;;;;;9.35;6.88;;;;;;;;;;9964479;28;20046;-64
2023/07/11 14:08:03;;;;;;;7.68;6.88;;;;;;;;;;9967790;28;20479;-68
2023/07/11 14:12:57;;;;;;;8.15;7.05;;;;;;;;;;9965715;28;20042;-63
2023/07/11 14:17:50;;;;;;;11.20;7.90;;;;;;;;;;9963134;28;20101;-61
2023/07/11 14:22:42;;;;;;;13.00;7.22;;;;;;;;;;9959912;28;20050;-64
2023/07/11 14:27:34;;;;;;;12.90;7.47;;;;;;;;;;9959411;28;20043;-68
2023/07/11 14:32:26;;;;;;;10.90;6.75;;;;;;;;;;9967091;28;20046;-59
2023/07/11 14:37:18;;;;;;;15.80;6.15;;;;;;;;;;9959574;28;20203;-66
2023/07/11 14:42:28;;;;;;;12.88;6.65;;;;;;;;;;9944100;28;20761;-64
2023/07/11 14:47:20;;;;;;;10.40;6.45;;;;;;;;;;9954318;28;20050;-59
2023/07/11 14:52:18;;;;;;;7.38;6.68;;;;;;;;;;9962112;28;20101;-61
2023/07/11 14:57:10;;;;;;;10.15;6.93;;;;;;;;;;9955684;28;20102;-58
2023/07/11 15:02:17;;;;;;;13.63;7.47;;;;;;;;;;9952127;28;20125;-60
2023/07/11 15:07:09;;;;;;;11.35;7.07;;;;;;;;;;9951312;28;20384;-59
2023/07/11 15:12:04;;;;;;;10.02;6.35;;;;;;;;;;9955269;28;20061;-58
2023/07/11 15:17:23;;;;;;;11.35;6.13;;;;;;;;;;9946936;28;20050;-62
2023/07/11 15:22:15;;;;;;;8.85;6.43;;;;;;;;;;9943192;28;20047;-57
2023/07/11 15:27:16;;;;;;;7.68;6.90;;;;;;;;;;9945872;28;20047;-56
2023/07/11 15:32:19;;;;;;;9.75;6.70;;;;;;;;;;9937294;28;20051;-58
2023/07/11 15:37:11;;;;;;;9.50;6.25;;;;;;;;;;9909671;28;20126;-58
2023/07/11 15:42:17;;;;;;;8.75;5.30;;;;;;;;;;9946479;28;20051;-60
2023/07/11 15:47:12;;;;;;;8.48;5.65;;;;;;;;;;9960052;28;20592;-61
2023/07/11 15:52:04;;;;;;;7.85;6.38;;;;;;;;;;9943792;28;20053;-64
2023/07/11 15:56:56;;;;;;;6.63;5.72;;;;;;;;;;9950484;28;20469;-67
2023/07/11 16:01:48;;;;;;;9.18;6.20;;;;;;;;;;9965958;28;20154;-58
2023/07/11 16:06:45;;;;;;;7.85;5.75;;;;;;;;;;9962297;28;20078;-63
2023/07/11 16:11:37;;;;;;;8.32;5.95;;;;;;;;;;9965631;28;20440;-65
2023/07/11 16:16:29;;;;;;;11.77;6.25;;;;;;;;;;9966490;28;20066;-62
2023/07/11 16:21:21;;;;;;;10.05;6.35;;;;;;;;;;9968583;28;20041;-60
2023/07/11 16:26:23;;;;;;;8.32;5.47;;;;;;;;;;9965422;28;20388;-66
2023/07/11 16:31:15;;;;;;;10.43;6.97;;;;;;;;;;9975449;28;20046;-60
2023/07/11 16:36:13;;;;;;;9.98;5.78;;;;;;;;;;9964371;28;20050;-61
2023/07/11 16:41:05;;;;;;;;;;;;;;;;;;9975384;28;20351;-65
2023/07/11 16:45:57;;;;;;;7.47;4.85;;;;;;;;;;9959584;28;19964;-62
2023/07/11 16:50:49;;;;;;;9.10;6.03;;;;;;;;;;9963184;28;20101;-63
2023/07/11 16:55:41;;;;;;;10.25;5.55;;;;;;;;;;9958625;28;20047;-70
2023/07/11 17:00:33;;;;;;;12.02;5.30;;;;;;;;;;9973984;28;20381;-68
2023/07/11 17:05:24;;;;;;;12.38;6.35;;;;;;;;;;9958654;28;20085;-69
2023/07/11 17:10:19;;;;;;;9.70;6.68;;;;;;;;;;9966355;28;20062;-60
2023/07/11 17:15:17;;;;;;;16.50;7.63;;;;;;;;;;9956583;28;20047;-66
2023/07/11 17:20:16;;;;;;;10.43;7.95;;;;;;;;;;9942015;28;20051;-60
2023/07/11 17:25:13;;;;;;;14.15;7.70;;;;;;;;;;9934305;28;20112;-67
2023/07/11 17:30:28;;;;;;;19.02;7.55;;;;;;;;;;9953209;28;20140;-58
2023/07/11 17:35:20;;;;;;;19.02;7.32;;;;;;;;;;9964117;28;20038;-66
2023/07/11 17:40:18;;;;;;;13.43;6.57;;;;;;;;;;9948693;28;20050;-65
2023/07/11 17:45:10;;;;;;;;;;;;;;;;;;9952687;28;20547;-68
2023/07/11 17:50:17;;;;;;;17.25;7.32;;;;;;;;;;9955941;28;19921;-67
2023/07/11 17:55:10;;;;;;;14.95;8.00;;;;;;;;;;9954684;28;20049;-68
2023/07/11 18:00:02;;;;;;;21.42;7.55;;;;;;;;;;9971311;28;20039;-69
2023/07/11 18:05:03;;;;;;;21.52;8.63;;;;;;;;;;9971263;28;20547;-69
2023/07/11 18:09:55;;;;;;;17.23;6.90;;;;;;;;;;9954236;28;20062;-70
2023/07/11 18:14:47;;;;;;;21.20;7.90;;;;;;;;;;9962179;28;20057;-69
2023/07/11 18:19:39;;;;;;;10.20;7.25;;;;;;;;;;9956051;28;20045;-69
2023/07/11 18:24:31;;;;;;;18.67;8.15;;;;;;;;;;9961493;28;20069;-68
2023/07/11 18:29:23;;;;;;;14.27;7.95;;;;;;;;;;9962348;28;20102;-67
2023/07/11 18:34:15;;;;;;;16.50;8.93;;;;;;;;;;9955896;28;20399;-67
2023/07/11 18:39:08;;;;;;;15.27;8.20;;;;;;;;;;9960188;28;20046;-68
2023/07/11 18:44:00;;;;;;;15.10;7.05;;;;;;;;;;9943515;28;20031;-68
2023/07/11 18:48:52;;;;;;;19.65;10.32;;;;;;;;;;9966740;28;20050;-68
2023/07/11 18:53:44;;;;;;;7.40;6.13;;;;;;;;;;9963263;28;20046;-67
2023/07/11 18:58:35;;;;;;;10.60;7.10;;;;;;;;;;9964962;28;20101;-68
2023/07/11 19:03:27;;;;;;;16.75;7.32;;;;;;;;;;9966077;28;20049;-69
2023/07/11 19:08:20;;;;;;;9.57;6.18;;;;;;;;;;9966388;28;20469;-67
2023/07/11 19:13:13;;;;;;;13.85;7.35;;;;;;;;;;9965413;28;20094;-68
2023/07/11 19:18:07;;;;;;;9.93;7.13;;;;;;;;;;9964797;28;20038;-72
2023/07/11 19:23:15;;;;;;;9.85;6.75;;;;;;;;;;9963017;28;20060;-71
2023/07/11 19:28:07;;;;;;;10.07;6.53;;;;;;;;;;9965423;28;20053;-71
2023/07/11 19:32:59;;;;;;;15.25;5.68;;;;;;;;;;9970890;28;20074;-69
2023/07/11 19:37:57;;;;;;;18.08;7.03;;;;;;;;;;9972386;28;20044;-69
2023/07/11 19:42:49;;;;;;;14.02;6.60;;;;;;;;;;9967235;28;20046;-70
2023/07/11 19:47:41;;;;;;;9.55;6.50;;;;;;;;;;9968819;28;20204;-69
2023/07/11 19:52:33;;;;;;;11.48;5.45;;;;;;;;;;9971621;28;20072;-66
2023/07/11 19:57:25;;;;;;;10.32;6.53;;;;;;;;;;9972141;28;20495;-66
2023/07/11 20:02:18;;;;;;;12.40;5.82;;;;;;;;;;9971884;28;20038;-65
2023/07/11 20:07:14;;;;;;;13.65;6.80;;;;;;;;;;9971754;28;20046;-66
2023/07/11 20:12:28;;;;;;;8.68;5.75;;;;;;;;;;9970699;28;20465;-65
2023/07/11 20:17:24;;;;;;;16.50;6.10;;;;;;;;;;9971287;28;20042;-66
2023/07/11 20:22:16;;;;;;;7.50;6.03;;;;;;;;;;9966216;28;20042;-64
2023/07/11 20:27:13;;;;;;;7.38;4.88;;;;;;;;;;9964326;28;20460;-64
2023/07/11 20:32:13;;;;;;;8.07;6.37;;;;;;;;;;9949200;28;20062;-64
2023/07/11 20:37:12;;;;;;;8.25;5.95;;;;;;;;;;9968406;28;20109;-64
2023/07/11 20:42:05;;;;;;;8.50;5.88;;;;;;;;;;9968439;28;20046;-64
2023/07/11 20:46:56;;;;;;;21.77;8.70;;;;;;;;;;9970603;28;20548;-66
2023/07/11 20:51:48;;;;;;;11.70;6.38;;;;;;;;;;9966792;28;20090;-65
2023/07/11 20:56:40;;;;;;;11.45;6.15;;;;;;;;;;9968679;28;20469;-65
2023/07/11 21:01:32;;;;;;;14.10;6.45;;;;;;;;;;9967902;28;20694;-65
2023/07/11 21:06:41;;;;;;;11.18;5.78;;;;;;;;;;9963995;28;20586;-68
2023/07/11 21:11:33;;;;;;;15.68;6.28;;;;;;;;;;9952190;28;20081;-65
2023/07/11 21:16:33;;;;;;;8.65;5.45;;;;;;;;;;9967643;28;20039;-65
2023/07/11 21:21:25;;;;;;;13.52;5.80;;;;;;;;;;9968852;28;20136;-65
2023/07/11 21:26:19;;;;;;;6.95;5.32;;;;;;;;;;9968372;28;20038;-65
2023/07/11 21:31:13;;;;;;;12.07;6.45;;;;;;;;;;9962691;28;20047;-65
2023/07/11 21:36:14;;;;;;;10.10;5.28;;;;;;;;;;9970354;28;20519;-63
2023/07/11 21:41:11;;;;;;;8.23;6.13;;;;;;;;;;9959221;28;20105;-63
2023/07/11 21:46:17;;;;;;;11.32;5.95;;;;;;;;;;9963289;28;20046;-65
2023/07/11 21:51:10;;;;;;;8.88;6.25;;;;;;;;;;9963765;28;20501;-63
2023/07/11 21:56:08;;;;;;;8.27;5.78;;;;;;;;;;9972295;28;20039;-63
2023/07/11 22:01:00;;;;;;;9.38;5.50;;;;;;;;;;9967213;28;20072;-62
2023/07/11 22:05:54;;;;;;;8.63;5.47;;;;;;;;;;9977191;28;20042;-63
2023/07/11 22:10:46;;;;;;;11.88;5.85;;;;;;;;;;9989381;28;20089;-63
2023/07/11 22:15:39;;;;;;;10.93;6.05;;;;;;;;;;9960994;28;20492;-63
2023/07/11 22:20:34;;;;;;;10.38;5.78;;;;;;;;;;9950087;28;20047;-62
2023/07/11 22:25:26;;;;;;;12.82;6.72;;;;;;;;;;9948781;28;20113;-62
2023/07/11 22:30:24;;;;;;;9.52;5.63;;;;;;;;;;9983083;28;20420;-62
2023/07/11 22:35:17;;;;;;;9.40;5.32;;;;;;;;;;9957738;28;20126;-63
2023/07/11 22:40:19;;;;;;;8.13;5.53;;;;;;;;;;9947563;28;20126;-62
2023/07/11 22:45:11;;;;;;;6.75;5.35;;;;;;;;;;9965677;28;20781;-62
2023/07/11 22:50:29;;;;;;;9.45;6.15;;;;;;;;;;9959962;28;20046;-62
2023/07/11 22:55:22;;;;;;;11.10;6.00;;;;;;;;;;9946202;28;20100;-62
2023/07/11 23:00:22;;;;;;;8.95;5.85;;;;;;;;;;9947191;28;20203;-62
2023/07/11 23:05:14;;;;;;;7.28;4.93;;;;;;;;;;9944644;28;20061;-63
2023/07/11 23:10:29;;;;;;;11.18;5.57;;;;;;;;;;9943958;28;20381;-63
2023/07/11 23:15:21;;;;;;;14.93;5.65;;;;;;;;;;9944897;28;20051;-63
2023/07/11 23:20:17;;;;;;;13.75;6.90;;;;;;;;;;9945976;28;20043;-63
2023/07/11 23:25:12;;;;;;;10.65;6.07;;;;;;;;;;9930270;28;20847;-62
2023/07/11 23:30:09;;;;;;;9.25;6.07;;;;;;;;;;9950168;28;20046;-63
2023/07/11 23:35:02;;;;;;;;;;;;;;;;;;9969970;28;20057;-64
2023/07/11 23:39:54;;;;;;;9.20;5.57;;;;;;;;;;9948797;28;19992;-62
2023/07/11 23:44:46;;;;;;;10.05;5.25;;;;;;;;;;9944823;28;20445;-62
2023/07/11 23:49:38;;;;;;;12.32;5.63;;;;;;;;;;9943622;28;20038;-63
2023/07/11 23:54:30;;;;;;;10.45;4.70;;;;;;;;;;9945416;28;20047;-65
2023/07/11 23:59:22;;;;;;;10.57;5.72;;;;;;;;;;9942024;28;20074;-66
